sensor_id;sensor_type;location;lat;lon;timestamp;P1;durP1;ratioP1;P2;durP2;ratioP2
22318;SDS011;11327;52.334;9.506;2023-07-20T00:00:12;1.67;;;0.53;;
22318;SDS011;11327;52.334;9.506;2023-07-20T00:03:34;1.05;;;0.57;;
22318;SDS011;11327;52.334;9.506;2023-07-20T00:06:54;1.47;;;0.78;;
22318;SDS011;11327;52.334;9.506;2023-07-20T00:10:15;1.35;;;0.70;;
22318;SDS011;11327;52.334;9.506;2023-07-20T00:13:36;1.72;;;0.75;;
22318;SDS011;11327;52.334;9.506;2023-07-20T00:16:57;1.00;;;0.70;;
22318;SDS011;11327;52.334;9.506;2023-07-20T00:20:17;0.98;;;0.50;;
22318;SDS011;11327;52.334;9.506;2023-07-20T00:23:38;0.95;;;0.60;;
22318;SDS011;11327;52.334;9.506;2023-07-20T00:26:59;1.25;;;0.60;;
22318;SDS011;11327;52.334;9.506;2023-07-20T00:30:21;1.15;;;0.60;;
22318;SDS011;11327;52.334;9.506;2023-07-20T00:33:42;1.12;;;0.80;;
22318;SDS011;11327;52.334;9.506;2023-07-20T00:37:02;1.10;;;0.70;;
22318;SDS011;11327;52.334;9.506;2023-07-20T00:40:23;1.45;;;0.60;;
22318;SDS011;11327;52.334;9.506;2023-07-20T00:43:44;1.10;;;0.70;;
22318;SDS011;11327;52.334;9.506;2023-07-20T00:47:05;1.30;;;0.65;;
22318;SDS011;11327;52.334;9.506;2023-07-20T00:50:26;1.07;;;0.60;;
22318;SDS011;11327;52.334;9.506;2023-07-20T00:53:49;1.10;;;0.80;;
22318;SDS011;11327;52.334;9.506;2023-07-20T00:57:09;0.90;;;0.70;;
22318;SDS011;11327;52.334;9.506;2023-07-20T01:00:34;0.72;;;0.55;;
22318;SDS011;11327;52.334;9.506;2023-07-20T01:03:55;0.98;;;0.60;;
22318;SDS011;11327;52.334;9.506;2023-07-20T01:07:32;1.22;;;0.60;;
22318;SDS011;11327;52.334;9.506;2023-07-20T01:10:59;0.90;;;0.70;;
22318;SDS011;11327;52.334;9.506;2023-07-20T01:14:23;1.40;;;0.60;;
22318;SDS011;11327;52.334;9.506;2023-07-20T01:17:45;1.15;;;0.68;;
22318;SDS011;11327;52.334;9.506;2023-07-20T01:21:08;0.65;;;0.50;;
22318;SDS011;11327;52.334;9.506;2023-07-20T01:24:51;1.47;;;0.70;;
22318;SDS011;11327;52.334;9.506;2023-07-20T01:32:07;0.60;;;0.60;;
22318;SDS011;11327;52.334;9.506;2023-07-20T01:35:30;0.93;;;0.50;;
22318;SDS011;11327;52.334;9.506;2023-07-20T01:38:52;1.10;;;0.88;;
22318;SDS011;11327;52.334;9.506;2023-07-20T01:42:13;1.15;;;0.62;;
22318;SDS011;11327;52.334;9.506;2023-07-20T01:45:34;0.90;;;0.80;;
22318;SDS011;11327;52.334;9.506;2023-07-20T01:48:55;0.90;;;0.60;;
22318;SDS011;11327;52.334;9.506;2023-07-20T01:52:15;1.67;;;0.85;;
22318;SDS011;11327;52.334;9.506;2023-07-20T01:55:36;2.35;;;0.80;;
22318;SDS011;11327;52.334;9.506;2023-07-20T01:58:57;0.80;;;0.80;;
22318;SDS011;11327;52.334;9.506;2023-07-20T02:02:18;1.10;;;0.70;;
22318;SDS011;11327;52.334;9.506;2023-07-20T02:05:39;1.20;;;0.68;;
22318;SDS011;11327;52.334;9.506;2023-07-20T02:09:00;1.17;;;0.70;;
22318;SDS011;11327;52.334;9.506;2023-07-20T02:12:20;1.05;;;0.70;;
22318;SDS011;11327;52.334;9.506;2023-07-20T02:15:41;1.15;;;0.70;;
22318;SDS011;11327;52.334;9.506;2023-07-20T02:19:03;1.42;;;0.72;;
22318;SDS011;11327;52.334;9.506;2023-07-20T02:22:24;0.70;;;0.60;;
22318;SDS011;11327;52.334;9.506;2023-07-20T02:25:45;1.12;;;0.75;;
22318;SDS011;11327;52.334;9.506;2023-07-20T02:29:06;0.82;;;0.80;;
22318;SDS011;11327;52.334;9.506;2023-07-20T02:32:28;1.00;;;0.60;;
22318;SDS011;11327;52.334;9.506;2023-07-20T02:35:48;1.45;;;0.60;;
22318;SDS011;11327;52.334;9.506;2023-07-20T02:39:09;0.57;;;0.55;;
22318;SDS011;11327;52.334;9.506;2023-07-20T02:42:30;0.75;;;0.70;;
22318;SDS011;11327;52.334;9.506;2023-07-20T02:45:51;1.52;;;0.60;;
22318;SDS011;11327;52.334;9.506;2023-07-20T02:49:12;0.90;;;0.80;;
22318;SDS011;11327;52.334;9.506;2023-07-20T02:52:32;1.00;;;0.70;;
22318;SDS011;11327;52.334;9.506;2023-07-20T02:55:53;1.77;;;0.68;;
22318;SDS011;11327;52.334;9.506;2023-07-20T02:59:14;1.15;;;0.65;;
22318;SDS011;11327;52.334;9.506;2023-07-20T03:02:35;1.30;;;0.65;;
22318;SDS011;11327;52.334;9.506;2023-07-20T03:05:56;1.52;;;0.88;;
22318;SDS011;11327;52.334;9.506;2023-07-20T03:09:17;0.53;;;0.53;;
22318;SDS011;11327;52.334;9.506;2023-07-20T03:12:38;0.53;;;0.53;;
22318;SDS011;11327;52.334;9.506;2023-07-20T03:15:59;0.60;;;0.60;;
22318;SDS011;11327;52.334;9.506;2023-07-20T03:19:19;0.88;;;0.60;;
22318;SDS011;11327;52.334;9.506;2023-07-20T03:22:40;1.42;;;0.60;;
22318;SDS011;11327;52.334;9.506;2023-07-20T03:26:01;1.35;;;0.70;;
22318;SDS011;11327;52.334;9.506;2023-07-20T03:29:22;0.95;;;0.60;;
22318;SDS011;11327;52.334;9.506;2023-07-20T03:32:42;0.93;;;0.60;;
22318;SDS011;11327;52.334;9.506;2023-07-20T03:36:03;0.95;;;0.60;;
22318;SDS011;11327;52.334;9.506;2023-07-20T03:39:24;0.60;;;0.60;;
22318;SDS011;11327;52.334;9.506;2023-07-20T03:42:45;1.75;;;0.82;;
22318;SDS011;11327;52.334;9.506;2023-07-20T03:46:06;0.62;;;0.60;;
22318;SDS011;11327;52.334;9.506;2023-07-20T03:49:27;1.30;;;0.50;;
22318;SDS011;11327;52.334;9.506;2023-07-20T03:52:48;1.20;;;0.68;;
22318;SDS011;11327;52.334;9.506;2023-07-20T03:56:08;0.90;;;0.75;;
22318;SDS011;11327;52.334;9.506;2023-07-20T03:59:29;1.22;;;0.70;;
22318;SDS011;11327;52.334;9.506;2023-07-20T04:02:50;1.55;;;0.70;;
22318;SDS011;11327;52.334;9.506;2023-07-20T04:06:11;1.42;;;0.90;;
22318;SDS011;11327;52.334;9.506;2023-07-20T04:09:32;1.47;;;0.82;;
22318;SDS011;11327;52.334;9.506;2023-07-20T04:12:53;2.02;;;1.07;;
22318;SDS011;11327;52.334;9.506;2023-07-20T04:16:14;3.22;;;1.10;;
22318;SDS011;11327;52.334;9.506;2023-07-20T04:19:34;2.80;;;1.37;;
22318;SDS011;11327;52.334;9.506;2023-07-20T04:22:55;2.58;;;1.50;;
22318;SDS011;11327;52.334;9.506;2023-07-20T04:26:16;2.47;;;1.80;;
22318;SDS011;11327;52.334;9.506;2023-07-20T04:29:37;5.78;;;1.90;;
22318;SDS011;11327;52.334;9.506;2023-07-20T04:32:57;2.85;;;1.80;;
22318;SDS011;11327;52.334;9.506;2023-07-20T04:36:18;4.05;;;2.20;;
22318;SDS011;11327;52.334;9.506;2023-07-20T04:39:39;3.02;;;1.95;;
22318;SDS011;11327;52.334;9.506;2023-07-20T04:43:00;4.37;;;2.80;;
22318;SDS011;11327;52.334;9.506;2023-07-20T04:46:21;3.08;;;2.50;;
22318;SDS011;11327;52.334;9.506;2023-07-20T04:49:41;3.15;;;2.72;;
22318;SDS011;11327;52.334;9.506;2023-07-20T04:53:02;3.20;;;2.90;;
22318;SDS011;11327;52.334;9.506;2023-07-20T04:56:24;5.17;;;3.50;;
22318;SDS011;11327;52.334;9.506;2023-07-20T04:59:45;4.22;;;3.50;;
22318;SDS011;11327;52.334;9.506;2023-07-20T05:03:05;5.45;;;3.80;;
22318;SDS011;11327;52.334;9.506;2023-07-20T05:06:26;4.62;;;3.90;;
22318;SDS011;11327;52.334;9.506;2023-07-20T05:09:47;4.58;;;4.05;;
22318;SDS011;11327;52.334;9.506;2023-07-20T05:13:08;4.85;;;4.00;;
22318;SDS011;11327;52.334;9.506;2023-07-20T05:16:28;4.03;;;3.58;;
22318;SDS011;11327;52.334;9.506;2023-07-20T05:19:49;4.92;;;3.83;;
22318;SDS011;11327;52.334;9.506;2023-07-20T05:23:10;5.33;;;4.20;;
22318;SDS011;11327;52.334;9.506;2023-07-20T05:26:31;5.12;;;4.62;;
22318;SDS011;11327;52.334;9.506;2023-07-20T05:29:51;4.80;;;4.20;;
22318;SDS011;11327;52.334;9.506;2023-07-20T05:33:13;5.10;;;4.45;;
22318;SDS011;11327;52.334;9.506;2023-07-20T05:36:34;4.67;;;4.17;;
22318;SDS011;11327;52.334;9.506;2023-07-20T05:39:54;5.20;;;4.70;;
22318;SDS011;11327;52.334;9.506;2023-07-20T05:43:15;5.00;;;4.50;;
22318;SDS011;11327;52.334;9.506;2023-07-20T05:46:36;4.67;;;4.15;;
22318;SDS011;11327;52.334;9.506;2023-07-20T05:49:57;4.28;;;3.87;;
22318;SDS011;11327;52.334;9.506;2023-07-20T05:53:18;4.00;;;3.60;;
22318;SDS011;11327;52.334;9.506;2023-07-20T05:56:38;4.80;;;4.20;;
22318;SDS011;11327;52.334;9.506;2023-07-20T05:59:59;5.08;;;4.08;;
22318;SDS011;11327;52.334;9.506;2023-07-20T06:03:20;5.10;;;4.60;;
22318;SDS011;11327;52.334;9.506;2023-07-20T06:06:42;5.45;;;4.58;;
22318;SDS011;11327;52.334;9.506;2023-07-20T06:10:03;5.95;;;5.35;;
22318;SDS011;11327;52.334;9.506;2023-07-20T06:13:26;4.87;;;4.37;;
22318;SDS011;11327;52.334;9.506;2023-07-20T06:16:46;5.87;;;4.95;;
22318;SDS011;11327;52.334;9.506;2023-07-20T06:20:07;5.30;;;4.72;;
22318;SDS011;11327;52.334;9.506;2023-07-20T06:23:28;6.17;;;5.58;;
22318;SDS011;11327;52.334;9.506;2023-07-20T06:26:49;6.15;;;5.55;;
22318;SDS011;11327;52.334;9.506;2023-07-20T06:30:10;6.83;;;5.67;;
22318;SDS011;11327;52.334;9.506;2023-07-20T06:33:31;6.37;;;5.70;;
22318;SDS011;11327;52.334;9.506;2023-07-20T06:36:52;7.55;;;6.70;;
22318;SDS011;11327;52.334;9.506;2023-07-20T06:40:13;9.43;;;6.75;;
22318;SDS011;11327;52.334;9.506;2023-07-20T06:43:33;6.80;;;6.20;;
22318;SDS011;11327;52.334;9.506;2023-07-20T06:46:55;7.35;;;6.03;;
22318;SDS011;11327;52.334;9.506;2023-07-20T06:50:16;8.68;;;7.87;;
22318;SDS011;11327;52.334;9.506;2023-07-20T06:53:36;10.88;;;9.78;;
22318;SDS011;11327;52.334;9.506;2023-07-20T06:56:57;9.60;;;8.70;;
22318;SDS011;11327;52.334;9.506;2023-07-20T07:00:18;7.80;;;7.00;;
22318;SDS011;11327;52.334;9.506;2023-07-20T07:03:39;7.70;;;7.00;;
22318;SDS011;11327;52.334;9.506;2023-07-20T07:07:00;6.87;;;6.17;;
22318;SDS011;11327;52.334;9.506;2023-07-20T07:10:21;5.97;;;5.37;;
22318;SDS011;11327;52.334;9.506;2023-07-20T07:13:41;6.40;;;5.25;;
22318;SDS011;11327;52.334;9.506;2023-07-20T07:17:02;8.03;;;5.72;;
22318;SDS011;11327;52.334;9.506;2023-07-20T07:20:23;6.40;;;5.80;;
22318;SDS011;11327;52.334;9.506;2023-07-20T07:23:45;6.65;;;6.05;;
22318;SDS011;11327;52.334;9.506;2023-07-20T07:27:06;6.85;;;6.20;;
22318;SDS011;11327;52.334;9.506;2023-07-20T07:30:27;6.72;;;6.10;;
22318;SDS011;11327;52.334;9.506;2023-07-20T07:33:47;6.12;;;5.60;;
22318;SDS011;11327;52.334;9.506;2023-07-20T07:37:08;5.92;;;4.60;;
22318;SDS011;11327;52.334;9.506;2023-07-20T07:40:29;5.95;;;5.20;;
22318;SDS011;11327;52.334;9.506;2023-07-20T07:43:50;5.45;;;4.95;;
22318;SDS011;11327;52.334;9.506;2023-07-20T07:47:11;7.00;;;6.40;;
22318;SDS011;11327;52.334;9.506;2023-07-20T07:50:33;7.75;;;6.97;;
22318;SDS011;11327;52.334;9.506;2023-07-20T07:53:55;6.33;;;5.72;;
22318;SDS011;11327;52.334;9.506;2023-07-20T07:57:16;5.33;;;4.83;;
22318;SDS011;11327;52.334;9.506;2023-07-20T08:00:37;5.15;;;4.60;;
22318;SDS011;11327;52.334;9.506;2023-07-20T08:03:58;4.30;;;3.90;;
22318;SDS011;11327;52.334;9.506;2023-07-20T08:07:18;3.70;;;3.40;;
22318;SDS011;11327;52.334;9.506;2023-07-20T08:10:39;3.62;;;3.05;;
22318;SDS011;11327;52.334;9.506;2023-07-20T08:14:00;3.60;;;3.17;;
22318;SDS011;11327;52.334;9.506;2023-07-20T08:17:21;4.17;;;3.77;;
22318;SDS011;11327;52.334;9.506;2023-07-20T08:20:45;3.42;;;2.70;;
22318;SDS011;11327;52.334;9.506;2023-07-20T08:24:06;2.75;;;2.30;;
22318;SDS011;11327;52.334;9.506;2023-07-20T08:27:27;3.45;;;3.15;;
22318;SDS011;11327;52.334;9.506;2023-07-20T08:30:49;3.10;;;2.58;;
22318;SDS011;11327;52.334;9.506;2023-07-20T08:34:10;2.75;;;2.10;;
22318;SDS011;11327;52.334;9.506;2023-07-20T08:37:31;2.90;;;2.05;;
22318;SDS011;11327;52.334;9.506;2023-07-20T08:40:51;2.83;;;2.62;;
22318;SDS011;11327;52.334;9.506;2023-07-20T08:44:14;2.75;;;2.50;;
22318;SDS011;11327;52.334;9.506;2023-07-20T08:47:35;3.65;;;2.30;;
22318;SDS011;11327;52.334;9.506;2023-07-20T08:50:57;2.72;;;2.50;;
22318;SDS011;11327;52.334;9.506;2023-07-20T08:54:20;3.92;;;2.40;;
22318;SDS011;11327;52.334;9.506;2023-07-20T08:57:41;2.47;;;2.17;;
22318;SDS011;11327;52.334;9.506;2023-07-20T09:01:05;3.55;;;2.00;;
22318;SDS011;11327;52.334;9.506;2023-07-20T09:04:26;2.40;;;1.82;;
22318;SDS011;11327;52.334;9.506;2023-07-20T09:07:47;4.12;;;1.70;;
22318;SDS011;11327;52.334;9.506;2023-07-20T09:11:08;1.52;;;1.17;;
22318;SDS011;11327;52.334;9.506;2023-07-20T09:14:30;1.02;;;0.95;;
22318;SDS011;11327;52.334;9.506;2023-07-20T09:17:52;2.20;;;1.40;;
22318;SDS011;11327;52.334;9.506;2023-07-20T09:21:16;1.50;;;1.27;;
22318;SDS011;11327;52.334;9.506;2023-07-20T09:24:37;1.50;;;1.30;;
22318;SDS011;11327;52.334;9.506;2023-07-20T09:27:59;2.30;;;1.22;;
22318;SDS011;11327;52.334;9.506;2023-07-20T09:31:23;1.67;;;0.85;;
22318;SDS011;11327;52.334;9.506;2023-07-20T09:34:43;2.35;;;1.10;;
22318;SDS011;11327;52.334;9.506;2023-07-20T09:38:04;1.87;;;1.10;;
22318;SDS011;11327;52.334;9.506;2023-07-20T09:41:25;1.98;;;0.95;;
22318;SDS011;11327;52.334;9.506;2023-07-20T09:44:47;0.85;;;0.80;;
22318;SDS011;11327;52.334;9.506;2023-07-20T09:48:09;1.62;;;0.80;;
22318;SDS011;11327;52.334;9.506;2023-07-20T09:51:30;1.52;;;0.75;;
22318;SDS011;11327;52.334;9.506;2023-07-20T09:54:51;1.92;;;0.80;;
22318;SDS011;11327;52.334;9.506;2023-07-20T09:58:13;1.25;;;0.90;;
22318;SDS011;11327;52.334;9.506;2023-07-20T10:01:34;0.90;;;0.70;;
22318;SDS011;11327;52.334;9.506;2023-07-20T10:04:55;1.15;;;0.70;;
22318;SDS011;11327;52.334;9.506;2023-07-20T10:08:16;2.45;;;0.70;;
22318;SDS011;11327;52.334;9.506;2023-07-20T10:11:43;0.70;;;0.60;;
22318;SDS011;11327;52.334;9.506;2023-07-20T10:22:03;0.98;;;0.50;;
22318;SDS011;11327;52.334;9.506;2023-07-20T10:25:25;1.92;;;0.42;;
22318;SDS011;11327;52.334;9.506;2023-07-20T10:28:47;1.67;;;0.50;;
22318;SDS011;11327;52.334;9.506;2023-07-20T10:32:08;0.80;;;0.50;;
22318;SDS011;11327;52.334;9.506;2023-07-20T10:35:30;0.80;;;0.40;;
22318;SDS011;11327;52.334;9.506;2023-07-20T10:38:54;1.60;;;0.60;;
22318;SDS011;11327;52.334;9.506;2023-07-20T10:42:17;1.37;;;0.60;;
22318;SDS011;11327;52.334;9.506;2023-07-20T10:45:47;2.35;;;0.60;;
22318;SDS011;11327;52.334;9.506;2023-07-20T10:49:10;1.95;;;0.50;;
22318;SDS011;11327;52.334;9.506;2023-07-20T10:52:38;1.10;;;0.60;;
22318;SDS011;11327;52.334;9.506;2023-07-20T10:56:07;2.77;;;0.88;;
22318;SDS011;11327;52.334;9.506;2023-07-20T11:02:58;1.00;;;0.50;;
22318;SDS011;11327;52.334;9.506;2023-07-20T11:09:50;1.05;;;0.70;;
22318;SDS011;11327;52.334;9.506;2023-07-20T11:13:17;1.45;;;0.85;;
22318;SDS011;11327;52.334;9.506;2023-07-20T11:20:04;1.15;;;0.70;;
22318;SDS011;11327;52.334;9.506;2023-07-20T11:23:25;1.45;;;0.75;;
22318;SDS011;11327;52.334;9.506;2023-07-20T11:26:47;1.72;;;0.70;;
22318;SDS011;11327;52.334;9.506;2023-07-20T11:30:15;1.10;;;0.60;;
22318;SDS011;11327;52.334;9.506;2023-07-20T11:33:38;0.95;;;0.60;;
22318;SDS011;11327;52.334;9.506;2023-07-20T11:36:59;1.50;;;0.60;;
22318;SDS011;11327;52.334;9.506;2023-07-20T11:40:20;2.17;;;0.88;;
22318;SDS011;11327;52.334;9.506;2023-07-20T11:43:41;0.62;;;0.55;;
22318;SDS011;11327;52.334;9.506;2023-07-20T11:47:07;1.50;;;0.60;;
22318;SDS011;11327;52.334;9.506;2023-07-20T11:50:29;1.95;;;1.00;;
22318;SDS011;11327;52.334;9.506;2023-07-20T11:53:50;1.07;;;0.70;;
22318;SDS011;11327;52.334;9.506;2023-07-20T11:57:17;0.82;;;0.65;;
22318;SDS011;11327;52.334;9.506;2023-07-20T12:00:38;0.95;;;0.70;;
22318;SDS011;11327;52.334;9.506;2023-07-20T12:04:01;1.02;;;0.50;;
22318;SDS011;11327;52.334;9.506;2023-07-20T12:07:25;2.55;;;0.80;;
22318;SDS011;11327;52.334;9.506;2023-07-20T12:10:48;0.98;;;0.60;;
22318;SDS011;11327;52.334;9.506;2023-07-20T12:14:09;1.40;;;0.60;;
22318;SDS011;11327;52.334;9.506;2023-07-20T12:17:30;0.70;;;0.55;;
22318;SDS011;11327;52.334;9.506;2023-07-20T12:20:58;1.27;;;0.60;;
22318;SDS011;11327;52.334;9.506;2023-07-20T12:24:17;1.07;;;0.75;;
22318;SDS011;11327;52.334;9.506;2023-07-20T12:27:38;1.02;;;0.50;;
22318;SDS011;11327;52.334;9.506;2023-07-20T12:30:59;1.22;;;0.50;;
22318;SDS011;11327;52.334;9.506;2023-07-20T12:34:19;0.88;;;0.50;;
22318;SDS011;11327;52.334;9.506;2023-07-20T12:37:40;1.72;;;0.50;;
22318;SDS011;11327;52.334;9.506;2023-07-20T12:41:02;1.42;;;0.60;;
22318;SDS011;11327;52.334;9.506;2023-07-20T12:44:23;0.50;;;0.50;;
22318;SDS011;11327;52.334;9.506;2023-07-20T12:47:44;2.33;;;0.80;;
22318;SDS011;11327;52.334;9.506;2023-07-20T12:51:05;1.20;;;0.60;;
22318;SDS011;11327;52.334;9.506;2023-07-20T12:54:25;0.57;;;0.47;;
22318;SDS011;11327;52.334;9.506;2023-07-20T12:57:46;1.22;;;0.53;;
22318;SDS011;11327;52.334;9.506;2023-07-20T13:01:07;1.45;;;0.60;;
22318;SDS011;11327;52.334;9.506;2023-07-20T13:04:28;0.50;;;0.50;;
22318;SDS011;11327;52.334;9.506;2023-07-20T13:07:48;1.20;;;0.55;;
22318;SDS011;11327;52.334;9.506;2023-07-20T13:11:09;0.93;;;0.53;;
22318;SDS011;11327;52.334;9.506;2023-07-20T13:14:30;0.80;;;0.60;;
22318;SDS011;11327;52.334;9.506;2023-07-20T13:17:51;0.70;;;0.60;;
22318;SDS011;11327;52.334;9.506;2023-07-20T13:21:11;0.78;;;0.60;;
22318;SDS011;11327;52.334;9.506;2023-07-20T13:24:32;1.25;;;0.60;;
22318;SDS011;11327;52.334;9.506;2023-07-20T13:27:53;1.92;;;0.72;;
22318;SDS011;11327;52.334;9.506;2023-07-20T13:31:14;1.27;;;0.57;;
22318;SDS011;11327;52.334;9.506;2023-07-20T13:34:34;0.90;;;0.55;;
22318;SDS011;11327;52.334;9.506;2023-07-20T13:37:55;1.27;;;0.70;;
22318;SDS011;11327;52.334;9.506;2023-07-20T13:41:16;1.30;;;0.62;;
22318;SDS011;11327;52.334;9.506;2023-07-20T13:44:37;1.60;;;0.68;;
22318;SDS011;11327;52.334;9.506;2023-07-20T13:47:58;1.62;;;0.80;;
22318;SDS011;11327;52.334;9.506;2023-07-20T13:51:18;1.05;;;0.70;;
22318;SDS011;11327;52.334;9.506;2023-07-20T13:54:40;0.88;;;0.70;;
22318;SDS011;11327;52.334;9.506;2023-07-20T13:58:00;1.20;;;0.60;;
22318;SDS011;11327;52.334;9.506;2023-07-20T14:01:21;1.15;;;0.70;;
22318;SDS011;11327;52.334;9.506;2023-07-20T14:04:43;0.93;;;0.70;;
22318;SDS011;11327;52.334;9.506;2023-07-20T14:08:04;1.25;;;0.70;;
22318;SDS011;11327;52.334;9.506;2023-07-20T14:11:25;2.05;;;0.90;;
22318;SDS011;11327;52.334;9.506;2023-07-20T14:14:46;0.80;;;0.75;;
22318;SDS011;11327;52.334;9.506;2023-07-20T14:18:07;0.85;;;0.60;;
22318;SDS011;11327;52.334;9.506;2023-07-20T14:21:28;3.90;;;1.15;;
22318;SDS011;11327;52.334;9.506;2023-07-20T14:24:49;2.15;;;0.62;;
22318;SDS011;11327;52.334;9.506;2023-07-20T14:28:09;1.98;;;0.70;;
22318;SDS011;11327;52.334;9.506;2023-07-20T14:31:30;1.20;;;0.75;;
22318;SDS011;11327;52.334;9.506;2023-07-20T14:34:51;1.30;;;0.72;;
22318;SDS011;11327;52.334;9.506;2023-07-20T14:38:12;1.30;;;0.60;;
22318;SDS011;11327;52.334;9.506;2023-07-20T14:41:32;1.10;;;0.57;;
22318;SDS011;11327;52.334;9.506;2023-07-20T14:44:53;1.05;;;0.68;;
22318;SDS011;11327;52.334;9.506;2023-07-20T14:48:14;2.37;;;0.60;;
22318;SDS011;11327;52.334;9.506;2023-07-20T14:51:34;0.90;;;0.53;;
22318;SDS011;11327;52.334;9.506;2023-07-20T14:54:56;2.62;;;1.10;;
22318;SDS011;11327;52.334;9.506;2023-07-20T14:58:17;1.85;;;0.72;;
22318;SDS011;11327;52.334;9.506;2023-07-20T15:01:38;2.87;;;0.90;;
22318;SDS011;11327;52.334;9.506;2023-07-20T15:04:58;2.70;;;0.70;;
22318;SDS011;11327;52.334;9.506;2023-07-20T15:08:20;1.20;;;0.70;;
22318;SDS011;11327;52.334;9.506;2023-07-20T15:11:41;0.95;;;0.60;;
22318;SDS011;11327;52.334;9.506;2023-07-20T15:21:58;1.47;;;0.80;;
22318;SDS011;11327;52.334;9.506;2023-07-20T15:25:18;0.80;;;0.72;;
22318;SDS011;11327;52.334;9.506;2023-07-20T15:28:39;2.15;;;0.80;;
22318;SDS011;11327;52.334;9.506;2023-07-20T15:32:01;1.37;;;0.60;;
22318;SDS011;11327;52.334;9.506;2023-07-20T15:35:22;1.80;;;0.80;;
22318;SDS011;11327;52.334;9.506;2023-07-20T15:38:44;1.55;;;0.72;;
22318;SDS011;11327;52.334;9.506;2023-07-20T15:42:05;2.10;;;0.82;;
22318;SDS011;11327;52.334;9.506;2023-07-20T15:45:27;2.25;;;1.00;;
22318;SDS011;11327;52.334;9.506;2023-07-20T15:48:49;2.87;;;0.98;;
22318;SDS011;11327;52.334;9.506;2023-07-20T15:52:10;2.08;;;0.90;;
22318;SDS011;11327;52.334;9.506;2023-07-20T15:55:33;2.27;;;0.90;;
22318;SDS011;11327;52.334;9.506;2023-07-20T15:58:54;2.02;;;0.98;;
22318;SDS011;11327;52.334;9.506;2023-07-20T16:02:15;3.05;;;1.30;;
22318;SDS011;11327;52.334;9.506;2023-07-20T16:05:35;3.65;;;1.00;;
22318;SDS011;11327;52.334;9.506;2023-07-20T16:08:56;1.70;;;1.00;;
22318;SDS011;11327;52.334;9.506;2023-07-20T16:12:17;1.57;;;1.00;;
22318;SDS011;11327;52.334;9.506;2023-07-20T16:15:38;1.98;;;1.00;;
22318;SDS011;11327;52.334;9.506;2023-07-20T16:18:59;2.30;;;1.22;;
22318;SDS011;11327;52.334;9.506;2023-07-20T16:22:19;2.08;;;1.10;;
22318;SDS011;11327;52.334;9.506;2023-07-20T16:25:40;2.67;;;0.93;;
22318;SDS011;11327;52.334;9.506;2023-07-20T16:29:03;1.85;;;1.00;;
22318;SDS011;11327;52.334;9.506;2023-07-20T16:32:24;2.02;;;1.00;;
22318;SDS011;11327;52.334;9.506;2023-07-20T16:35:44;1.87;;;1.00;;
22318;SDS011;11327;52.334;9.506;2023-07-20T16:39:05;1.42;;;0.80;;
22318;SDS011;11327;52.334;9.506;2023-07-20T16:42:26;1.70;;;0.80;;
22318;SDS011;11327;52.334;9.506;2023-07-20T16:45:47;1.45;;;0.80;;
22318;SDS011;11327;52.334;9.506;2023-07-20T16:49:08;1.65;;;0.80;;
22318;SDS011;11327;52.334;9.506;2023-07-20T16:52:30;1.15;;;0.80;;
22318;SDS011;11327;52.334;9.506;2023-07-20T16:55:51;2.40;;;1.00;;
22318;SDS011;11327;52.334;9.506;2023-07-20T16:59:12;2.35;;;1.00;;
22318;SDS011;11327;52.334;9.506;2023-07-20T17:02:33;1.67;;;1.10;;
22318;SDS011;11327;52.334;9.506;2023-07-20T17:05:54;1.47;;;1.00;;
22318;SDS011;11327;52.334;9.506;2023-07-20T17:09:15;2.33;;;1.10;;
22318;SDS011;11327;52.334;9.506;2023-07-20T17:12:36;1.82;;;1.20;;
22318;SDS011;11327;52.334;9.506;2023-07-20T17:15:59;2.08;;;0.80;;
22318;SDS011;11327;52.334;9.506;2023-07-20T17:19:20;2.37;;;1.22;;
22318;SDS011;11327;52.334;9.506;2023-07-20T17:22:40;2.00;;;0.90;;
22318;SDS011;11327;52.334;9.506;2023-07-20T17:26:01;3.22;;;1.00;;
22318;SDS011;11327;52.334;9.506;2023-07-20T17:29:23;3.10;;;0.90;;
22318;SDS011;11327;52.334;9.506;2023-07-20T17:32:44;2.17;;;0.82;;
22318;SDS011;11327;52.334;9.506;2023-07-20T17:36:05;2.42;;;1.17;;
22318;SDS011;11327;52.334;9.506;2023-07-20T17:39:25;2.42;;;1.00;;
22318;SDS011;11327;52.334;9.506;2023-07-20T17:42:46;5.67;;;1.85;;
22318;SDS011;11327;52.334;9.506;2023-07-20T17:46:07;3.05;;;1.12;;
22318;SDS011;11327;52.334;9.506;2023-07-20T17:49:28;2.08;;;1.00;;
22318;SDS011;11327;52.334;9.506;2023-07-20T17:52:48;2.45;;;0.90;;
22318;SDS011;11327;52.334;9.506;2023-07-20T17:56:09;2.08;;;0.95;;
22318;SDS011;11327;52.334;9.506;2023-07-20T17:59:30;2.20;;;1.40;;
22318;SDS011;11327;52.334;9.506;2023-07-20T18:02:51;2.35;;;1.30;;
22318;SDS011;11327;52.334;9.506;2023-07-20T18:06:12;1.52;;;1.00;;
22318;SDS011;11327;52.334;9.506;2023-07-20T18:09:33;4.12;;;2.77;;
22318;SDS011;11327;52.334;9.506;2023-07-20T18:12:53;2.37;;;1.50;;
22318;SDS011;11327;52.334;9.506;2023-07-20T18:16:14;3.15;;;1.10;;
22318;SDS011;11327;52.334;9.506;2023-07-20T18:19:36;1.47;;;1.00;;
22318;SDS011;11327;52.334;9.506;2023-07-20T18:22:57;2.12;;;1.15;;
22318;SDS011;11327;52.334;9.506;2023-07-20T18:26:18;2.05;;;0.90;;
22318;SDS011;11327;52.334;9.506;2023-07-20T18:29:39;2.87;;;1.30;;
22318;SDS011;11327;52.334;9.506;2023-07-20T18:33:00;2.20;;;1.02;;
22318;SDS011;11327;52.334;9.506;2023-07-20T18:36:21;2.30;;;1.20;;
22318;SDS011;11327;52.334;9.506;2023-07-20T18:39:44;1.95;;;0.90;;
22318;SDS011;11327;52.334;9.506;2023-07-20T18:43:05;1.50;;;1.02;;
22318;SDS011;11327;52.334;9.506;2023-07-20T18:46:26;2.10;;;1.22;;
22318;SDS011;11327;52.334;9.506;2023-07-20T18:49:46;1.37;;;1.07;;
22318;SDS011;11327;52.334;9.506;2023-07-20T18:53:07;2.60;;;1.10;;
22318;SDS011;11327;52.334;9.506;2023-07-20T18:56:28;1.57;;;1.17;;
22318;SDS011;11327;52.334;9.506;2023-07-20T18:59:49;1.45;;;1.17;;
22318;SDS011;11327;52.334;9.506;2023-07-20T19:03:10;3.45;;;2.05;;
22318;SDS011;11327;52.334;9.506;2023-07-20T19:06:31;2.05;;;1.17;;
22318;SDS011;11327;52.334;9.506;2023-07-20T19:09:51;2.10;;;1.20;;
22318;SDS011;11327;52.334;9.506;2023-07-20T19:13:12;1.92;;;1.20;;
22318;SDS011;11327;52.334;9.506;2023-07-20T19:16:33;2.08;;;1.20;;
22318;SDS011;11327;52.334;9.506;2023-07-20T19:19:54;2.00;;;0.98;;
22318;SDS011;11327;52.334;9.506;2023-07-20T19:23:15;2.12;;;1.12;;
22318;SDS011;11327;52.334;9.506;2023-07-20T19:26:36;1.47;;;1.00;;
22318;SDS011;11327;52.334;9.506;2023-07-20T19:29:57;2.17;;;1.32;;
22318;SDS011;11327;52.334;9.506;2023-07-20T19:33:17;2.05;;;1.15;;
22318;SDS011;11327;52.334;9.506;2023-07-20T19:36:38;2.08;;;1.20;;
22318;SDS011;11327;52.334;9.506;2023-07-20T19:39:59;2.10;;;1.20;;
22318;SDS011;11327;52.334;9.506;2023-07-20T19:43:21;2.75;;;1.17;;
22318;SDS011;11327;52.334;9.506;2023-07-20T19:46:44;2.30;;;1.30;;
22318;SDS011;11327;52.334;9.506;2023-07-20T19:50:06;2.10;;;1.30;;
22318;SDS011;11327;52.334;9.506;2023-07-20T19:53:27;2.83;;;1.75;;
22318;SDS011;11327;52.334;9.506;2023-07-20T19:56:48;2.98;;;1.90;;
22318;SDS011;11327;52.334;9.506;2023-07-20T20:00:09;2.75;;;1.67;;
22318;SDS011;11327;52.334;9.506;2023-07-20T20:03:32;2.58;;;1.30;;
22318;SDS011;11327;52.334;9.506;2023-07-20T20:06:54;1.90;;;1.30;;
22318;SDS011;11327;52.334;9.506;2023-07-20T20:10:14;1.92;;;1.52;;
22318;SDS011;11327;52.334;9.506;2023-07-20T20:13:35;3.02;;;1.98;;
22318;SDS011;11327;52.334;9.506;2023-07-20T20:16:56;2.62;;;1.55;;
22318;SDS011;11327;52.334;9.506;2023-07-20T20:20:17;3.30;;;1.30;;
22318;SDS011;11327;52.334;9.506;2023-07-20T20:23:37;2.42;;;1.42;;
22318;SDS011;11327;52.334;9.506;2023-07-20T20:27:00;1.70;;;1.27;;
22318;SDS011;11327;52.334;9.506;2023-07-20T20:30:24;2.92;;;1.77;;
22318;SDS011;11327;52.334;9.506;2023-07-20T20:33:45;2.98;;;1.75;;
22318;SDS011;11327;52.334;9.506;2023-07-20T20:37:06;2.30;;;1.37;;
22318;SDS011;11327;52.334;9.506;2023-07-20T20:40:26;3.77;;;1.40;;